Time;durP1;ratioP1;P1;durP2;ratioP2;P2;SDS_P1;SDS_P2;PMS_P1;PMS_P2;Temp;Humidity;BMP_temperature;BMP_pressure;BME280_temperature;BME280_humidity;BME280_pressure;Samples;Min_cycle;Max_cycle;Signal;HPM_P1;HPM_P2
2022/12/28 00:02:16;;;;;;;22.63;15.68;;;7.70;99.90;;;;;;5104410;28;20126;-77
2022/12/28 00:04:42;;;;;;;24.92;16.35;;;7.70;99.90;;;;;;5104013;28;20032;-77
2022/12/28 00:07:08;;;;;;;22.80;15.60;;;7.70;99.90;;;;;;5105094;28;20028;-77
2022/12/28 00:09:33;;;;;;;23.50;15.07;;;7.70;99.90;;;;;;5103314;28;20101;-77
2022/12/28 00:11:59;;;;;;;21.05;14.73;;;7.70;99.90;;;;;;5105469;28;20039;-77
2022/12/28 00:14:25;;;;;;;21.83;14.20;;;7.70;99.90;;;;;;5102732;28;20058;-77
2022/12/28 00:16:50;;;;;;;21.00;13.85;;;7.70;99.90;;;;;;5104361;28;20031;-77
2022/12/28 00:19:16;;;;;;;23.92;15.18;;;7.70;99.90;;;;;;5102303;28;20476;-77
2022/12/28 00:21:43;;;;;;;23.75;14.90;;;7.80;99.90;;;;;;5106229;28;20076;-77
2022/12/28 00:24:19;;;;;;;19.60;14.15;;;7.80;99.90;;;;;;5101656;28;20024;-76
2022/12/28 00:26:45;;;;;;;20.27;13.93;;;7.80;99.90;;;;;;5103718;28;20028;-77
2022/12/28 00:29:11;;;;;;;26.15;15.40;;;7.80;99.90;;;;;;5104017;28;20107;-77
2022/12/28 00:31:37;;;;;;;20.45;13.48;;;7.80;99.90;;;;;;5105268;28;20111;-76
2022/12/28 00:34:03;;;;;;;21.15;14.32;;;7.80;99.90;;;;;;5108983;28;20133;-77
2022/12/28 00:36:29;;;;;;;21.60;14.50;;;7.80;99.90;;;;;;5110376;28;20395;-77
2022/12/28 00:38:55;;;;;;;23.63;15.30;;;7.80;99.90;;;;;;5105872;28;20102;-77
2022/12/28 00:41:21;;;;;;;22.52;14.07;;;7.90;99.90;;;;;;5102547;28;20107;-78
2022/12/28 00:43:47;;;;;;;20.77;13.70;;;7.90;99.90;;;;;;5106083;27;20072;-77
2022/12/28 00:46:13;;;;;;;19.33;13.15;;;7.90;99.90;;;;;;5104903;28;20054;-77
2022/12/28 00:48:39;;;;;;;22.83;14.80;;;7.90;99.90;;;;;;5105977;28;20110;-77
2022/12/28 00:51:16;;;;;;;24.17;14.88;;;7.90;99.90;;;;;;5102554;28;20066;-77
2022/12/28 00:53:42;;;;;;;21.15;15.05;;;7.90;99.90;;;;;;5102900;28;20066;-77
2022/12/28 00:56:11;;;;;;;23.63;15.15;;;7.90;99.90;;;;;;5103710;28;20035;-77
2022/12/28 00:58:37;;;;;;;23.08;16.00;;;7.90;99.90;;;;;;5105133;27;20028;-77
2022/12/28 01:01:04;;;;;;;23.48;15.70;;;7.90;99.90;;;;;;5102406;28;20380;-77
2022/12/28 01:03:30;;;;;;;23.65;15.52;;;7.90;99.90;;;;;;5104842;28;20021;-77
2022/12/28 01:05:56;;;;;;;25.20;14.63;;;7.90;99.90;;;;;;5105568;28;20111;-77
2022/12/28 01:08:22;;;;;;;22.08;15.43;;;7.90;99.90;;;;;;5101994;28;20050;-77
2022/12/28 01:10:47;;;;;;;23.98;15.23;;;7.90;99.90;;;;;;5100579;28;20028;-76
2022/12/28 01:13:13;;;;;;;21.80;15.07;;;7.90;99.90;;;;;;5105685;28;20027;-76
2022/12/28 01:15:39;;;;;;;22.00;15.02;;;7.90;99.90;;;;;;5102090;28;20554;-76
2022/12/28 01:18:05;;;;;;;23.45;15.70;;;7.90;99.90;;;;;;5104816;28;20024;-77
2022/12/28 01:20:30;;;;;;;26.25;15.35;;;8.00;99.90;;;;;;5102470;28;20055;-76
2022/12/28 01:22:56;;;;;;;21.25;14.98;;;8.00;99.90;;;;;;5104272;28;20026;-76
2022/12/28 01:25:22;;;;;;;22.60;14.90;;;8.00;99.90;;;;;;5103187;28;20059;-77
2022/12/28 01:27:48;;;;;;;23.83;15.32;;;8.00;99.90;;;;;;5103697;28;20024;-77
2022/12/28 01:30:14;;;;;;;23.58;15.07;;;8.10;99.90;;;;;;5103229;28;20055;-77
2022/12/28 01:32:40;;;;;;;22.10;14.68;;;8.10;99.90;;;;;;5103160;28;20360;-77
2022/12/28 01:35:06;;;;;;;23.60;15.68;;;8.10;99.90;;;;;;5100783;28;20027;-77
2022/12/28 01:37:32;;;;;;;22.13;15.13;;;8.10;99.90;;;;;;5102556;28;20024;-76
2022/12/28 01:39:58;;;;;;;22.33;15.57;;;8.10;99.90;;;;;;5104152;27;20047;-76
2022/12/28 01:42:24;;;;;;;19.30;14.23;;;8.10;99.90;;;;;;5102154;28;20020;-77
2022/12/28 01:44:50;;;;;;;24.33;16.02;;;8.10;99.90;;;;;;5104322;28;20042;-77
2022/12/28 01:47:21;;;;;;;22.33;15.15;;;8.10;99.90;;;;;;5100296;28;20391;-77
2022/12/28 01:50:16;;;;;;;20.90;14.90;;;8.10;99.90;;;;;;5102749;28;20051;-77
2022/12/28 01:52:50;;;;;;;22.48;14.65;;;8.10;99.90;;;;;;5098354;28;20173;-76
2022/12/28 01:55:29;;;;;;;22.48;15.40;;;8.20;99.90;;;;;;5102646;28;20030;-77
2022/12/28 01:58:00;;;;;;;24.10;14.73;;;8.20;99.90;;;;;;5104036;28;20023;-76
2022/12/28 02:00:26;;;;;;;23.37;15.93;;;8.20;99.90;;;;;;5100857;28;20020;-77
2022/12/28 02:02:58;;;;;;;22.30;15.00;;;8.20;99.90;;;;;;5103006;28;20261;-77
2022/12/28 02:05:28;;;;;;;22.42;14.60;;;8.20;99.90;;;;;;5102223;28;20030;-76
2022/12/28 02:08:18;;;;;;;21.30;13.73;;;8.20;99.90;;;;;;5099904;28;20043;-76
2022/12/28 02:10:45;;;;;;;20.45;14.45;;;8.20;99.90;;;;;;5100969;28;20051;-77
2022/12/28 02:13:13;;;;;;;23.08;14.80;;;8.20;99.90;;;;;;5100022;28;20034;-77
2022/12/28 02:15:38;;;;;;;25.48;15.80;;;8.20;99.90;;;;;;5101006;28;20122;-77
2022/12/28 02:18:04;;;;;;;27.77;15.15;;;8.30;99.90;;;;;;5102505;28;20031;-76
2022/12/28 02:20:42;;;;;;;23.15;15.10;;;8.30;99.90;;;;;;5101414;28;20366;-77
2022/12/28 02:23:19;;;;;;;23.77;15.32;;;8.30;99.90;;;;;;5100622;28;20042;-76
2022/12/28 02:26:11;;;;;;;22.30;14.35;;;8.30;99.90;;;;;;5102650;28;20026;-77
2022/12/28 02:28:51;;;;;;;21.00;14.68;;;8.30;99.90;;;;;;5096335;28;20093;-77
2022/12/28 02:31:22;;;;;;;21.23;14.80;;;8.30;99.90;;;;;;5101176;28;20028;-76
2022/12/28 02:34:22;;;;;;;21.73;15.00;;;8.30;99.90;;;;;;5100285;28;20028;-77
2022/12/28 02:37:01;;;;;;;22.05;15.40;;;8.30;99.90;;;;;;5086760;28;20665;-77
2022/12/28 02:39:37;;;;;;;21.30;14.75;;;8.30;99.90;;;;;;5101243;28;20021;-77
2022/12/28 02:42:05;;;;;;;23.73;15.60;;;8.30;99.90;;;;;;5101659;28;20023;-77
2022/12/28 02:50:06;;;;;;;29.52;16.30;;;8.30;99.90;;;;;;5101207;28;20054;-77
2022/12/28 02:52:38;;;;;;;23.85;16.40;;;8.30;99.90;;;;;;5103552;28;20425;-77
2022/12/28 02:58:34;;;;;;;20.92;14.50;;;8.30;99.90;;;;;;5103951;28;20026;-77
2022/12/28 03:01:02;;;;;;;22.45;14.75;;;8.30;99.90;;;;;;5103948;28;20101;-77
2022/12/28 03:03:46;;;;;;;20.08;14.60;;;8.30;99.90;;;;;;5100024;28;20035;-76
2022/12/28 03:09:40;;;;;;;24.27;14.60;;;8.20;99.90;;;;;;5102229;28;20122;-77
2022/12/28 03:12:28;;;;;;;21.40;14.07;;;8.20;99.90;;;;;;5112266;27;20035;-76
2022/12/28 03:15:28;;;;;;;20.45;13.98;;;8.20;99.90;;;;;;5101151;28;20062;-76
2022/12/28 03:31:57;;;;;;;22.13;14.90;;;8.10;99.90;;;;;;5099787;28;20403;-77
2022/12/28 03:34:23;;;;;;;25.83;15.57;;;8.10;99.90;;;;;;5100848;28;20028;-77
2022/12/28 03:36:56;;;;;;;24.23;15.70;;;8.10;99.90;;;;;;5099517;28;20024;-77
2022/12/28 03:39:57;;;;;;;25.15;16.23;;;8.10;99.90;;;;;;5098692;28;20067;-77
2022/12/28 03:45:25;;;;;;;23.58;15.90;;;8.00;99.90;;;;;;5099694;28;20055;-77
2022/12/28 03:47:52;;;;;;;23.88;16.52;;;8.00;99.90;;;;;;5101766;28;20059;-77
2022/12/28 03:50:20;;;;;;;25.70;16.27;;;8.10;99.90;;;;;;5100741;28;20432;-77
2022/12/28 03:52:46;;;;;;;24.05;16.20;;;8.10;99.90;;;;;;5100475;28;20126;-77
2022/12/28 03:55:15;;;;;;;21.80;15.65;;;8.10;99.90;;;;;;5100573;28;20028;-77
2022/12/28 03:57:41;;;;;;;23.90;16.77;;;8.10;99.90;;;;;;5100435;28;20034;-76
2022/12/28 04:00:09;;;;;;;24.55;16.30;;;8.20;99.90;;;;;;5100501;28;20030;-76
2022/12/28 04:02:36;;;;;;;22.48;15.70;;;8.20;99.90;;;;;;5083645;28;20119;-77
2022/12/28 04:05:02;;;;;;;26.48;16.48;;;8.20;99.90;;;;;;5099371;28;20059;-77
2022/12/28 04:07:27;;;;;;;19.85;14.73;;;8.20;99.90;;;;;;5100260;28;20031;-77
2022/12/28 04:09:53;;;;;;;21.70;15.35;;;8.30;99.90;;;;;;5102271;28;20055;-77
2022/12/28 04:12:19;;;;;;;21.92;15.13;;;8.20;99.90;;;;;;5099709;28;20489;-77
2022/12/28 04:14:45;;;;;;;21.33;14.45;;;8.20;99.90;;;;;;5098931;28;20032;-76
2022/12/28 04:17:11;;;;;;;21.33;13.88;;;8.30;99.90;;;;;;5101345;28;20028;-77
2022/12/28 04:19:36;;;;;;;21.15;14.38;;;8.30;99.90;;;;;;5101435;28;20028;-77
2022/12/28 04:22:02;;;;;;;20.98;14.38;;;8.30;99.90;;;;;;5106583;28;20020;-76
2022/12/28 04:24:28;;;;;;;20.17;13.95;;;8.30;99.90;;;;;;5101802;28;20032;-77
2022/12/28 04:26:54;;;;;;;20.13;14.18;;;8.30;99.90;;;;;;5106175;28;20034;-77
2022/12/28 04:29:19;;;;;;;21.42;14.93;;;8.30;99.90;;;;;;5103551;28;20032;-76
2022/12/28 04:31:46;;;;;;;22.15;13.98;;;8.30;99.90;;;;;;5105232;28;20532;-77
2022/12/28 04:34:12;;;;;;;19.38;14.25;;;8.30;99.90;;;;;;5100522;28;20028;-77
2022/12/28 04:36:41;;;;;;;23.42;14.63;;;8.30;99.90;;;;;;5105284;28;20063;-77
2022/12/28 04:39:08;;;;;;;21.30;14.23;;;8.30;99.90;;;;;;5103819;28;20023;-77
2022/12/28 04:41:34;;;;;;;22.60;13.65;;;8.30;99.90;;;;;;5104919;28;20078;-77
2022/12/28 04:43:59;;;;;;;17.88;13.77;;;8.30;99.90;;;;;;5103820;28;20031;-77
2022/12/28 04:46:25;;;;;;;23.20;14.18;;;8.30;99.90;;;;;;5103053;28;20048;-76
2022/12/28 04:48:51;;;;;;;20.83;13.75;;;8.30;99.90;;;;;;5108119;28;20540;-77
2022/12/28 04:51:21;;;;;;;19.30;14.15;;;8.40;99.90;;;;;;5104512;28;20505;-77
2022/12/28 04:53:47;;;;;;;21.25;14.18;;;8.30;99.90;;;;;;5104264;28;20077;-77
2022/12/28 04:56:14;;;;;;;21.48;14.50;;;8.30;99.90;;;;;;5104389;28;20039;-77
2022/12/28 04:58:40;;;;;;;23.70;14.38;;;8.40;99.90;;;;;;5106236;28;20096;-77
2022/12/28 05:01:11;;;;;;;22.77;14.43;;;8.40;99.90;;;;;;5103409;28;20029;-77
2022/12/28 05:03:40;;;;;;;23.13;14.27;;;8.40;99.90;;;;;;5107005;28;20056;-76
2022/12/28 05:06:09;;;;;;;22.05;13.45;;;8.40;99.90;;;;;;5107971;28;20479;-77
2022/12/28 05:08:35;;;;;;;23.08;14.45;;;8.30;99.90;;;;;;5104392;28;20024;-77
2022/12/28 05:11:04;;;;;;;23.60;15.43;;;8.40;99.90;;;;;;5102332;28;20031;-76
2022/12/28 05:13:30;;;;;;;23.38;15.27;;;8.40;99.90;;;;;;5102891;28;20434;-77
2022/12/28 05:16:00;;;;;;;23.17;14.82;;;8.40;99.90;;;;;;5103423;28;20027;-76
2022/12/28 05:18:27;;;;;;;22.42;14.38;;;8.40;99.90;;;;;;5104350;28;20032;-76
2022/12/28 05:21:03;;;;;;;19.05;13.75;;;8.40;99.90;;;;;;5103183;28;20027;-77
2022/12/28 05:23:31;;;;;;;19.35;13.60;;;8.40;99.90;;;;;;5105417;28;20020;-77
2022/12/28 05:25:57;;;;;;;20.08;14.70;;;8.40;99.90;;;;;;5100732;28;20049;-77
2022/12/28 05:28:24;;;;;;;19.10;13.57;;;8.40;99.90;;;;;;5104890;28;20030;-77
2022/12/28 05:30:49;;;;;;;21.20;13.85;;;8.40;99.90;;;;;;5099996;28;20055;-77
2022/12/28 05:33:15;;;;;;;20.98;13.85;;;8.40;99.90;;;;;;5104038;28;20509;-76
2022/12/28 05:35:41;;;;;;;21.10;14.85;;;8.40;99.90;;;;;;5112044;28;20483;-77
2022/12/28 05:38:07;;;;;;;22.23;14.85;;;8.40;99.90;;;;;;5109644;28;20027;-77
2022/12/28 05:40:32;;;;;;;21.30;13.73;;;8.40;99.90;;;;;;5111914;28;20118;-77
2022/12/28 05:42:58;;;;;;;16.50;10.50;;;8.40;99.90;;;;;;5110773;28;20015;-76
2022/12/28 05:45:24;;;;;;;22.48;15.45;;;8.30;99.90;;;;;;5110584;28;20388;-77
2022/12/28 05:47:50;;;;;;;21.85;14.68;;;8.40;99.90;;;;;;5110540;28;20019;-77
2022/12/28 05:50:16;;;;;;;23.95;15.38;;;8.40;99.90;;;;;;5111928;28;20015;-76
2022/12/28 05:52:42;;;;;;;26.05;15.63;;;8.40;99.90;;;;;;5112547;28;20492;-77
2022/12/28 05:55:08;;;;;;;23.13;15.57;;;8.40;99.90;;;;;;5111208;28;20023;-76
2022/12/28 05:57:33;;;;;;;24.88;16.77;;;8.40;99.90;;;;;;5108698;28;20110;-76
2022/12/28 05:59:59;;;;;;;24.85;14.57;;;8.40;99.90;;;;;;5103058;28;20118;-77
2022/12/28 06:02:26;;;;;;;19.85;14.30;;;8.40;99.90;;;;;;5101026;28;20467;-76
2022/12/28 06:04:52;;;;;;;22.98;14.57;;;8.40;99.90;;;;;;5103928;28;20467;-77
2022/12/28 06:07:19;;;;;;;19.80;14.77;;;8.40;99.90;;;;;;5099678;28;20162;-77
2022/12/28 06:09:44;;;;;;;21.35;13.80;;;8.40;99.90;;;;;;5100841;28;20107;-77
2022/12/28 06:12:10;;;;;;;20.25;13.88;;;8.50;99.90;;;;;;5102990;28;20667;-76
2022/12/28 06:14:35;;;;;;;22.20;15.95;;;8.40;99.90;;;;;;5099899;28;20035;-76
2022/12/28 06:17:01;;;;;;;21.30;14.75;;;8.40;99.90;;;;;;5103640;28;20059;-76
2022/12/28 06:19:27;;;;;;;22.05;14.70;;;8.50;99.90;;;;;;5100383;28;20024;-77
2022/12/28 06:21:53;;;;;;;23.02;14.93;;;8.50;99.90;;;;;;5101904;28;20024;-77
2022/12/28 06:24:19;;;;;;;22.95;15.23;;;8.50;99.90;;;;;;5100359;28;20543;-76
2022/12/28 06:26:44;;;;;;;24.40;14.82;;;8.50;99.90;;;;;;5102071;28;20023;-77
2022/12/28 06:29:10;;;;;;;26.42;16.02;;;8.50;99.90;;;;;;5102352;28;20047;-77
2022/12/28 06:31:39;;;;;;;24.58;15.32;;;8.40;99.90;;;;;;5099303;28;20015;-77
2022/12/28 06:34:06;;;;;;;21.17;15.40;;;8.50;99.90;;;;;;5101802;28;20119;-76
2022/12/28 06:36:35;;;;;;;23.80;16.27;;;8.50;99.90;;;;;;5098633;28;20012;-77
2022/12/28 06:39:03;;;;;;;23.83;15.57;;;8.50;99.90;;;;;;5100531;28;20109;-77
2022/12/28 06:41:29;;;;;;;26.60;16.55;;;8.50;99.90;;;;;;5097781;28;20028;-77
2022/12/28 06:43:55;;;;;;;22.50;15.75;;;8.40;99.90;;;;;;5100436;28;20106;-77
2022/12/28 06:46:23;;;;;;;23.17;15.60;;;8.40;99.90;;;;;;5101515;28;20024;-77
2022/12/28 06:48:49;;;;;;;25.40;17.02;;;8.40;99.90;;;;;;5100982;28;20049;-77
2022/12/28 06:51:21;;;;;;;26.90;16.98;;;8.40;99.90;;;;;;5101532;28;20016;-77
2022/12/28 06:53:48;;;;;;;25.70;16.38;;;8.40;99.90;;;;;;5098562;28;20028;-77
2022/12/28 06:56:23;;;;;;;24.63;16.35;;;8.40;99.90;;;;;;5105722;28;20028;-76
2022/12/28 06:58:50;;;;;;;24.63;16.13;;;8.50;99.90;;;;;;5106428;28;20118;-77
2022/12/28 07:01:17;;;;;;;25.77;17.35;;;8.50;99.90;;;;;;5091467;28;20023;-76
2022/12/28 07:03:44;;;;;;;27.42;17.08;;;8.50;99.90;;;;;;5093663;28;20063;-76
2022/12/28 07:06:11;;;;;;;26.55;17.25;;;8.50;99.90;;;;;;5105582;28;20027;-76
2022/12/28 07:08:38;;;;;;;25.95;16.02;;;8.40;99.90;;;;;;5099409;28;20039;-76
2022/12/28 07:11:08;;;;;;;22.10;15.75;;;8.40;99.90;;;;;;5100894;28;20446;-76
2022/12/28 07:13:34;;;;;;;25.05;15.80;;;8.40;99.90;;;;;;5096411;28;20036;-76
2022/12/28 07:16:09;;;;;;;27.23;17.05;;;8.40;99.90;;;;;;5108177;28;20122;-76
2022/12/28 07:18:36;;;;;;;25.90;16.40;;;8.40;99.90;;;;;;5099439;28;20127;-76
2022/12/28 07:21:09;;;;;;;27.35;17.08;;;8.40;99.90;;;;;;5092525;28;20024;-77
2022/12/28 07:23:34;;;;;;;25.00;16.85;;;8.50;99.90;;;;;;5105608;28;20024;-76
2022/12/28 07:26:06;;;;;;;26.55;17.10;;;8.50;99.90;;;;;;5104709;28;20368;-76
2022/12/28 07:28:35;;;;;;;27.45;17.20;;;8.50;99.90;;;;;;5113264;28;20031;-76
2022/12/28 07:31:08;;;;;;;27.30;18.42;;;8.50;99.90;;;;;;5113139;28;20524;-76
2022/12/28 07:33:35;;;;;;;30.08;17.48;;;8.50;99.90;;;;;;5104058;28;20479;-76
2022/12/28 07:36:05;;;;;;;27.40;17.17;;;8.60;99.90;;;;;;5108539;28;20024;-76
2022/12/28 07:38:31;;;;;;;28.63;18.58;;;8.60;99.90;;;;;;5094837;28;20054;-76
2022/12/28 07:41:03;;;;;;;16.50;12.63;;;8.60;99.90;;;;;;5111588;28;20023;-76
2022/12/28 07:43:29;;;;;;;15.82;11.68;;;8.70;99.90;;;;;;5109231;28;20613;-76
2022/12/28 07:46:05;;;;;;;19.75;13.70;;;8.90;99.90;;;;;;5094824;28;20060;-76
2022/12/28 07:48:32;;;;;;;30.42;18.35;;;9.00;99.90;;;;;;5103107;28;20023;-76
2022/12/28 07:51:09;;;;;;;29.35;19.00;;;9.10;99.90;;;;;;5112568;28;20053;-76
2022/12/28 07:53:36;;;;;;;32.13;19.40;;;9.00;99.90;;;;;;5110763;28;20031;-76
2022/12/28 07:56:02;;;;;;;29.50;19.02;;;8.90;99.90;;;;;;5113516;28;20035;-77
2022/12/28 07:58:27;;;;;;;30.40;19.67;;;8.90;99.90;;;;;;5115369;28;20024;-77
2022/12/28 08:00:53;;;;;;;35.17;22.20;;;8.90;99.90;;;;;;5115548;28;20020;-80
2022/12/28 08:03:19;;;;;;;42.80;27.38;;;8.80;99.90;;;;;;5099092;28;20020;-80
2022/12/28 08:05:45;;;;;;;45.30;27.73;;;8.70;99.90;;;;;;5099858;28;20028;-80
2022/12/28 08:08:11;;;;;;;44.95;27.65;;;8.80;99.90;;;;;;5114846;27;20497;-81
2022/12/28 08:10:37;;;;;;;45.97;26.58;;;8.80;99.90;;;;;;5107759;28;20502;-80
2022/12/28 08:13:02;;;;;;;40.25;23.25;;;8.80;99.90;;;;;;5116440;28;20441;-80
2022/12/28 08:15:28;;;;;;;39.95;23.77;;;8.80;99.90;;;;;;5113538;28;20069;-80
2022/12/28 08:17:55;;;;;;;35.50;20.42;;;8.90;99.90;;;;;;5115101;28;20035;-79
2022/12/28 08:20:21;;;;;;;28.70;19.40;;;8.90;99.90;;;;;;5113332;28;20406;-80
2022/12/28 08:22:48;;;;;;;27.30;17.60;;;8.90;99.90;;;;;;5115778;28;20031;-80
2022/12/28 08:25:13;;;;;;;29.52;18.55;;;8.90;99.90;;;;;;5114493;28;20020;-81
2022/12/28 08:27:39;;;;;;;25.00;16.95;;;8.90;99.90;;;;;;5113950;28;20368;-80
2022/12/28 08:30:05;;;;;;;30.17;17.80;;;8.90;99.90;;;;;;5113586;28;20016;-80
2022/12/28 08:32:31;;;;;;;25.48;17.42;;;8.90;99.90;;;;;;5115248;28;20019;-81
2022/12/28 08:34:57;;;;;;;28.42;18.50;;;8.90;99.90;;;;;;5101155;28;20078;-81
2022/12/28 08:37:23;;;;;;;42.20;24.55;;;8.90;99.90;;;;;;5106725;28;20024;-81
2022/12/28 08:39:48;;;;;;;44.03;25.10;;;9.00;99.90;;;;;;5113947;28;20027;-81
2022/12/28 08:42:14;;;;;;;46.00;26.83;;;9.00;99.90;;;;;;5113838;28;20352;-80
2022/12/28 08:44:40;;;;;;;47.00;27.90;;;8.90;99.90;;;;;;5100834;28;20059;-80
2022/12/28 08:47:05;;;;;;;40.60;26.42;;;9.00;99.90;;;;;;5108279;28;20015;-80
2022/12/28 08:49:31;;;;;;;47.60;28.05;;;9.00;99.90;;;;;;5115063;28;20050;-80
2022/12/28 08:51:57;;;;;;;48.95;28.60;;;9.00;99.90;;;;;;5099346;28;20031;-79
2022/12/28 08:54:22;;;;;;;42.50;27.52;;;9.00;99.90;;;;;;5095598;28;20528;-80
2022/12/28 08:56:48;;;;;;;43.03;26.48;;;9.00;99.90;;;;;;5113919;28;20059;-80
2022/12/28 08:59:17;;;;;;;43.40;27.98;;;9.10;99.90;;;;;;5113426;28;20028;-80
2022/12/28 09:01:44;;;;;;;51.88;31.98;;;9.10;99.90;;;;;;5115035;28;20053;-80
2022/12/28 09:04:18;;;;;;;47.65;29.23;;;9.10;99.90;;;;;;5106289;28;20028;-80
2022/12/28 09:06:44;;;;;;;45.95;26.83;;;9.20;99.90;;;;;;5094489;28;20028;-80
2022/12/28 09:09:13;;;;;;;41.53;26.00;;;9.20;99.90;;;;;;5110340;28;20036;-80
2022/12/28 09:11:39;;;;;;;38.95;24.40;;;9.30;99.90;;;;;;5110206;28;20062;-80
2022/12/28 09:14:07;;;;;;;43.00;24.40;;;9.30;99.90;;;;;;5094466;28;20086;-80
2022/12/28 09:16:34;;;;;;;40.25;24.33;;;9.30;99.90;;;;;;5110062;28;20456;-81
2022/12/28 09:19:02;;;;;;;39.00;23.58;;;9.40;99.90;;;;;;5097899;28;20106;-80
2022/12/28 09:21:30;;;;;;;34.58;22.20;;;9.40;99.90;;;;;;5113578;28;20056;-80
2022/12/28 09:23:56;;;;;;;37.88;23.95;;;9.40;99.90;;;;;;5093196;28;20027;-80
2022/12/28 09:26:27;;;;;;;38.22;24.67;;;9.40;99.90;;;;;;5094282;28;20020;-80
2022/12/28 09:28:55;;;;;;;38.03;23.87;;;9.50;99.90;;;;;;5102442;28;20096;-80
2022/12/28 09:31:22;;;;;;;40.13;25.60;;;9.50;99.90;;;;;;5114299;28;20286;-80
2022/12/28 09:34:00;;;;;;;45.38;26.52;;;9.50;99.90;;;;;;5109585;28;20674;-80
2022/12/28 09:36:38;;;;;;;39.60;26.05;;;9.50;99.90;;;;;;5095406;28;20043;-80
2022/12/28 09:39:16;;;;;;;44.85;26.67;;;9.60;99.90;;;;;;5094046;28;20372;-80
2022/12/28 09:42:06;;;;;;;38.28;23.38;;;9.60;99.90;;;;;;5092709;28;20107;-80
2022/12/28 09:44:40;;;;;;;34.65;21.63;;;9.60;99.90;;;;;;5100961;28;20119;-80
2022/12/28 09:47:24;;;;;;;33.90;20.05;;;9.70;99.90;;;;;;5109467;28;20024;-80
2022/12/28 09:50:08;;;;;;;25.70;17.77;;;9.70;99.90;;;;;;5092368;28;20461;-80
2022/12/28 09:53:02;;;;;;;26.55;17.48;;;9.70;99.90;;;;;;5093816;28;20152;-80
2022/12/28 09:55:28;;;;;;;29.33;18.35;;;9.80;99.90;;;;;;5092424;28;20123;-81
2022/12/28 09:57:56;;;;;;;27.92;17.38;;;9.80;99.90;;;;;;5114025;28;20455;-81
2022/12/28 10:00:47;;;;;;;25.25;16.92;;;9.80;99.90;;;;;;5105334;28;20019;-80
2022/12/28 10:03:18;;;;;;;24.48;16.98;;;9.80;99.90;;;;;;5114009;27;20020;-80
2022/12/28 10:05:44;;;;;;;26.88;18.08;;;9.90;99.90;;;;;;5092420;28;20024;-80
2022/12/28 10:08:12;;;;;;;28.48;16.65;;;9.90;99.90;;;;;;5113490;28;20030;-80
2022/12/28 10:10:40;;;;;;;25.98;17.55;;;9.90;99.90;;;;;;5093491;28;20095;-80
2022/12/28 10:13:37;;;;;;;25.42;17.17;;;9.90;99.90;;;;;;5109462;28;20499;-80
2022/12/28 10:16:04;;;;;;;30.00;17.80;;;10.00;99.90;;;;;;5096427;28;20036;-80
2022/12/28 10:18:30;;;;;;;29.15;19.50;;;10.00;99.90;;;;;;5113250;28;20024;-81
2022/12/28 10:20:56;;;;;;;31.65;19.48;;;10.00;99.90;;;;;;5113532;28;20019;-80
2022/12/28 10:23:29;;;;;;;28.83;18.83;;;10.00;99.90;;;;;;5113514;28;20028;-80
2022/12/28 10:25:57;;;;;;;32.72;19.23;;;10.00;99.90;;;;;;5113400;28;20437;-81
2022/12/28 10:28:27;;;;;;;32.80;20.23;;;10.00;99.90;;;;;;5099605;28;20027;-80
2022/12/28 10:31:05;;;;;;;32.05;19.02;;;10.00;99.90;;;;;;5093063;28;20024;-80
2022/12/28 10:33:31;;;;;;;28.73;19.65;;;10.10;99.90;;;;;;5098658;28;20032;-81
2022/12/28 10:35:58;;;;;;;28.50;17.90;;;10.10;99.90;;;;;;5113344;28;20106;-81
2022/12/28 10:38:31;;;;;;;28.63;18.27;;;10.20;99.90;;;;;;5113351;28;20035;-82
2022/12/28 10:41:03;;;;;;;34.95;19.80;;;10.20;99.90;;;;;;5113260;28;20109;-81
2022/12/28 10:43:38;;;;;;;28.42;17.83;;;10.20;99.90;;;;;;5113039;28;20025;-81
2022/12/28 10:46:13;;;;;;;32.05;19.65;;;10.30;99.90;;;;;;5112945;28;20074;-81
2022/12/28 10:48:44;;;;;;;30.10;18.17;;;10.30;99.90;;;;;;5112888;28;20046;-80
2022/12/28 10:51:29;;;;;;;26.27;17.55;;;10.30;99.90;;;;;;5112977;28;20447;-80
2022/12/28 10:53:56;;;;;;;24.67;16.33;;;10.40;99.90;;;;;;5112763;28;20055;-80
2022/12/28 10:56:42;;;;;;;20.38;14.70;;;10.50;99.90;;;;;;5111650;28;20023;-80
2022/12/28 10:59:11;;;;;;;20.17;14.27;;;10.60;99.90;;;;;;5102252;28;20028;-81
2022/12/28 11:01:39;;;;;;;20.70;13.73;;;10.70;99.90;;;;;;5090832;28;20028;-80
2022/12/28 11:04:15;;;;;;;23.08;14.18;;;10.70;99.90;;;;;;5098989;28;20085;-80
2022/12/28 11:06:54;;;;;;;20.33;13.32;;;10.80;99.90;;;;;;5112869;28;20020;-81
2022/12/28 11:09:29;;;;;;;20.90;13.77;;;10.90;99.90;;;;;;5093755;28;20051;-80
2022/12/28 11:12:35;;;;;;;20.02;12.98;;;10.90;99.90;;;;;;5095210;28;20034;-80
2022/12/28 11:15:01;;;;;;;22.88;12.98;;;10.90;99.90;;;;;;5076287;28;20531;-80
2022/12/28 11:17:28;;;;;;;16.45;12.43;;;10.90;99.90;;;;;;5079662;28;20035;-80
2022/12/28 11:20:15;;;;;;;22.00;13.18;;;10.90;99.90;;;;;;5081576;28;20119;-81
2022/12/28 11:22:41;;;;;;;21.10;13.63;;;10.90;99.90;;;;;;5112588;28;20494;-81
2022/12/28 11:25:07;;;;;;;18.20;12.55;;;10.90;99.90;;;;;;5111507;28;20050;-81
2022/12/28 11:27:34;;;;;;;25.38;14.93;;;10.90;99.90;;;;;;5111480;28;20368;-81
2022/12/28 11:30:01;;;;;;;19.80;13.45;;;10.90;99.90;;;;;;5109044;28;20031;-80
2022/12/28 11:32:32;;;;;;;21.25;13.98;;;10.80;99.90;;;;;;5096130;28;20115;-80
2022/12/28 11:34:59;;;;;;;20.20;13.13;;;10.80;99.90;;;;;;5114963;28;20052;-80
2022/12/28 11:37:25;;;;;;;18.50;12.52;;;10.80;99.90;;;;;;5096234;28;20078;-80
2022/12/28 11:39:51;;;;;;;23.48;14.35;;;10.80;99.90;;;;;;5106239;28;20023;-80
2022/12/28 11:42:37;;;;;;;20.10;13.68;;;10.90;99.90;;;;;;5105982;28;20020;-80
2022/12/28 11:45:33;;;;;;;20.42;14.15;;;10.90;99.90;;;;;;5085189;28;20044;-80
2022/12/28 11:48:37;;;;;;;19.83;13.32;;;10.90;99.90;;;;;;5095952;28;20056;-80
2022/12/28 11:51:04;;;;;;;20.23;13.45;;;11.00;99.90;;;;;;5106931;28;20024;-80
2022/12/28 11:53:33;;;;;;;18.17;11.55;;;11.00;99.90;;;;;;5094658;28;20028;-80
2022/12/28 11:56:04;;;;;;;16.15;10.60;;;11.10;99.90;;;;;;5095930;28;20027;-80
2022/12/28 11:58:30;;;;;;;14.13;9.38;;;11.00;99.90;;;;;;5109419;28;20372;-81
2022/12/28 12:00:58;;;;;;;16.40;10.80;;;11.00;99.90;;;;;;5114911;28;20032;-80
2022/12/28 12:03:58;;;;;;;18.15;11.55;;;11.10;99.90;;;;;;5102745;28;20020;-80
2022/12/28 12:06:42;;;;;;;16.40;11.23;;;11.10;99.90;;;;;;5106040;28;20433;-80
2022/12/28 12:09:20;;;;;;;18.08;11.57;;;11.20;99.90;;;;;;5118338;27;20032;-80
2022/12/28 12:11:50;;;;;;;16.17;11.52;;;11.30;99.90;;;;;;5103690;28;20028;-80
2022/12/28 12:14:39;;;;;;;17.38;11.35;;;11.30;99.90;;;;;;5102581;28;20019;-80
2022/12/28 12:17:32;;;;;;;15.95;11.02;;;11.40;99.90;;;;;;5115689;28;20081;-80
2022/12/28 12:20:06;;;;;;;15.15;10.13;;;11.50;99.90;;;;;;5093363;28;20039;-80
2022/12/28 12:22:50;;;;;;;16.17;10.10;;;11.50;99.90;;;;;;5114238;28;20024;-81
2022/12/28 12:25:39;;;;;;;14.90;9.95;;;11.50;99.90;;;;;;5107135;28;20382;-80
2022/12/28 12:28:34;;;;;;;17.83;10.43;;;11.40;99.90;;;;;;5095947;28;20020;-81
2022/12/28 12:31:05;;;;;;;14.25;9.88;;;11.40;99.90;;;;;;5095358;28;20494;-81
2022/12/28 12:33:35;;;;;;;15.48;9.82;;;11.40;99.90;;;;;;5101780;28;20027;-81
2022/12/28 12:36:34;;;;;;;17.70;10.20;;;11.40;99.90;;;;;;5115676;28;20020;-81
2022/12/28 12:39:28;;;;;;;14.43;8.93;;;11.40;99.90;;;;;;5115236;28;20032;-81
2022/12/28 12:42:07;;;;;;;17.38;9.57;;;11.40;99.90;;;;;;5115571;28;20024;-80
2022/12/28 12:44:47;;;;;;;16.13;9.15;;;11.40;99.90;;;;;;5103190;28;20442;-76
2022/12/28 12:47:26;;;;;;;14.07;10.23;;;11.40;99.90;;;;;;5110649;28;20031;-76
2022/12/28 12:50:12;;;;;;;16.08;10.63;;;11.40;99.90;;;;;;5095440;28;20162;-76
2022/12/28 12:53:02;;;;;;;16.17;10.65;;;11.40;99.90;;;;;;5099606;28;20394;-76
2022/12/28 12:55:52;;;;;;;14.18;10.00;;;11.40;99.90;;;;;;5131017;27;20036;-76
2022/12/28 12:58:55;;;;;;;16.83;10.50;;;11.40;99.90;;;;;;5098778;28;20114;-76
2022/12/28 13:01:45;;;;;;;13.07;9.02;;;11.40;99.90;;;;;;5095309;28;20120;-76
2022/12/28 13:04:20;;;;;;;13.18;9.50;;;11.40;99.90;;;;;;5107068;28;20031;-76
2022/12/28 13:06:46;;;;;;;10.65;8.52;;;11.30;99.90;;;;;;5114264;28;20024;-76
2022/12/28 13:09:17;;;;;;;12.20;9.75;;;11.30;99.90;;;;;;5102702;28;20553;-76
2022/12/28 13:11:44;;;;;;;12.23;9.00;;;11.30;99.90;;;;;;5107206;28;20084;-76
2022/12/28 13:14:22;;;;;;;12.10;9.10;;;11.30;99.90;;;;;;5115425;28;20068;-76
2022/12/28 13:16:54;;;;;;;13.98;9.82;;;11.30;99.90;;;;;;5115355;28;20875;-76
2022/12/28 13:19:22;;;;;;;;;;;11.30;99.90;;;;;;5114481;28;20028;-76
2022/12/28 13:21:49;;;;;;;12.82;9.52;;;11.30;99.90;;;;;;5107142;28;19990;-76
2022/12/28 13:24:20;;;;;;;12.00;8.90;;;11.30;99.90;;;;;;5115439;28;20051;-76